sensor_id;sensor_type;location;lat;lon;timestamp;P1;durP1;ratioP1;P2;durP2;ratioP2
26484;SDS011;18083;50.560;7.262;2022-09-09T00:01:49;3.98;;;1.77;;
26484;SDS011;18083;50.560;7.262;2022-09-09T00:04:29;6.37;;;2.58;;
26484;SDS011;18083;50.560;7.262;2022-09-09T00:09:27;3.65;;;1.65;;
26484;SDS011;18083;50.560;7.262;2022-09-09T00:11:57;3.65;;;1.92;;
26484;SDS011;18083;50.560;7.262;2022-09-09T00:14:25;2.75;;;1.30;;
26484;SDS011;18083;50.560;7.262;2022-09-09T00:16:55;3.47;;;1.62;;
26484;SDS011;18083;50.560;7.262;2022-09-09T00:19:37;6.05;;;2.50;;
26484;SDS011;18083;50.560;7.262;2022-09-09T00:27:01;3.98;;;1.62;;
26484;SDS011;18083;50.560;7.262;2022-09-09T00:32:00;6.35;;;1.55;;
26484;SDS011;18083;50.560;7.262;2022-09-09T00:34:29;6.45;;;1.85;;
26484;SDS011;18083;50.560;7.262;2022-09-09T00:36:57;3.22;;;1.55;;
26484;SDS011;18083;50.560;7.262;2022-09-09T00:39:32;4.85;;;1.82;;
26484;SDS011;18083;50.560;7.262;2022-09-09T00:42:16;4.67;;;1.42;;
26484;SDS011;18083;50.560;7.262;2022-09-09T00:52:44;6.00;;;2.80;;
26484;SDS011;18083;50.560;7.262;2022-09-09T00:57:38;4.72;;;1.00;;
26484;SDS011;18083;50.560;7.262;2022-09-09T01:07:52;2.42;;;1.75;;
26484;SDS011;18083;50.560;7.262;2022-09-09T01:10:34;4.15;;;1.65;;
26484;SDS011;18083;50.560;7.262;2022-09-09T01:12:55;3.60;;;1.57;;
26484;SDS011;18083;50.560;7.262;2022-09-09T01:15:27;4.45;;;2.55;;
26484;SDS011;18083;50.560;7.262;2022-09-09T01:20:39;5.62;;;1.40;;
26484;SDS011;18083;50.560;7.262;2022-09-09T01:28:22;4.17;;;1.70;;
26484;SDS011;18083;50.560;7.262;2022-09-09T01:30:50;2.45;;;1.42;;
26484;SDS011;18083;50.560;7.262;2022-09-09T01:33:17;4.92;;;1.62;;
26484;SDS011;18083;50.560;7.262;2022-09-09T01:35:49;2.47;;;1.35;;
26484;SDS011;18083;50.560;7.262;2022-09-09T01:38:22;3.50;;;1.62;;
26484;SDS011;18083;50.560;7.262;2022-09-09T01:40:50;4.17;;;1.40;;
26484;SDS011;18083;50.560;7.262;2022-09-09T01:43:23;4.80;;;1.72;;
26484;SDS011;18083;50.560;7.262;2022-09-09T01:45:47;10.45;;;1.72;;
26484;SDS011;18083;50.560;7.262;2022-09-09T01:48:15;2.60;;;1.65;;
26484;SDS011;18083;50.560;7.262;2022-09-09T01:50:43;3.02;;;1.60;;
26484;SDS011;18083;50.560;7.262;2022-09-09T01:53:11;5.78;;;1.67;;
26484;SDS011;18083;50.560;7.262;2022-09-09T01:55:40;7.33;;;1.60;;
26484;SDS011;18083;50.560;7.262;2022-09-09T02:01:13;3.65;;;1.75;;
26484;SDS011;18083;50.560;7.262;2022-09-09T02:03:35;5.20;;;1.50;;
26484;SDS011;18083;50.560;7.262;2022-09-09T02:06:05;2.25;;;1.40;;
26484;SDS011;18083;50.560;7.262;2022-09-09T02:11:16;5.17;;;1.75;;
26484;SDS011;18083;50.560;7.262;2022-09-09T02:13:45;2.12;;;1.50;;
26484;SDS011;18083;50.560;7.262;2022-09-09T02:16:22;3.87;;;2.37;;
26484;SDS011;18083;50.560;7.262;2022-09-09T02:18:51;7.25;;;1.90;;
26484;SDS011;18083;50.560;7.262;2022-09-09T02:21:11;3.20;;;1.65;;
26484;SDS011;18083;50.560;7.262;2022-09-09T02:23:40;4.40;;;1.50;;
26484;SDS011;18083;50.560;7.262;2022-09-09T02:26:09;2.65;;;1.40;;
26484;SDS011;18083;50.560;7.262;2022-09-09T02:28:39;3.20;;;1.40;;
26484;SDS011;18083;50.560;7.262;2022-09-09T02:31:08;2.02;;;1.77;;
26484;SDS011;18083;50.560;7.262;2022-09-09T02:33:41;2.90;;;2.22;;
26484;SDS011;18083;50.560;7.262;2022-09-09T02:36:04;5.78;;;1.57;;
26484;SDS011;18083;50.560;7.262;2022-09-09T02:38:34;3.20;;;1.70;;
26484;SDS011;18083;50.560;7.262;2022-09-09T02:41:02;5.25;;;1.85;;
26484;SDS011;18083;50.560;7.262;2022-09-09T02:43:33;3.08;;;1.90;;
26484;SDS011;18083;50.560;7.262;2022-09-09T02:48:48;6.17;;;2.58;;
26484;SDS011;18083;50.560;7.262;2022-09-09T02:51:30;4.53;;;1.72;;
26484;SDS011;18083;50.560;7.262;2022-09-09T02:53:56;6.28;;;1.67;;
26484;SDS011;18083;50.560;7.262;2022-09-09T02:56:21;4.12;;;1.82;;
26484;SDS011;18083;50.560;7.262;2022-09-09T02:58:50;3.80;;;1.50;;
26484;SDS011;18083;50.560;7.262;2022-09-09T03:01:18;3.50;;;1.50;;
26484;SDS011;18083;50.560;7.262;2022-09-09T03:03:45;5.22;;;2.22;;
26484;SDS011;18083;50.560;7.262;2022-09-09T03:06:13;4.00;;;1.80;;
26484;SDS011;18083;50.560;7.262;2022-09-09T03:08:40;5.80;;;1.98;;
26484;SDS011;18083;50.560;7.262;2022-09-09T03:11:08;3.62;;;1.62;;
26484;SDS011;18083;50.560;7.262;2022-09-09T03:13:35;3.30;;;1.52;;
26484;SDS011;18083;50.560;7.262;2022-09-09T03:16:04;1.60;;;1.47;;
26484;SDS011;18083;50.560;7.262;2022-09-09T03:18:31;3.27;;;1.62;;
26484;SDS011;18083;50.560;7.262;2022-09-09T03:21:00;4.22;;;1.95;;
26484;SDS011;18083;50.560;7.262;2022-09-09T03:23:28;6.17;;;1.72;;
26484;SDS011;18083;50.560;7.262;2022-09-09T03:25:55;4.65;;;1.70;;
26484;SDS011;18083;50.560;7.262;2022-09-09T03:28:24;3.80;;;2.10;;
26484;SDS011;18083;50.560;7.262;2022-09-09T03:30:57;6.40;;;2.98;;
26484;SDS011;18083;50.560;7.262;2022-09-09T03:33:22;5.05;;;1.82;;
26484;SDS011;18083;50.560;7.262;2022-09-09T03:35:50;4.62;;;2.35;;
26484;SDS011;18083;50.560;7.262;2022-09-09T03:38:17;6.53;;;1.70;;
26484;SDS011;18083;50.560;7.262;2022-09-09T03:40:48;2.98;;;1.80;;
26484;SDS011;18083;50.560;7.262;2022-09-09T03:43:16;1.85;;;1.65;;
26484;SDS011;18083;50.560;7.262;2022-09-09T03:45:46;4.90;;;2.15;;
26484;SDS011;18083;50.560;7.262;2022-09-09T03:48:14;7.08;;;1.90;;
26484;SDS011;18083;50.560;7.262;2022-09-09T03:50:45;6.70;;;1.77;;
26484;SDS011;18083;50.560;7.262;2022-09-09T03:53:13;4.65;;;1.70;;
26484;SDS011;18083;50.560;7.262;2022-09-09T03:55:49;6.05;;;1.75;;
26484;SDS011;18083;50.560;7.262;2022-09-09T03:58:13;7.47;;;1.82;;
26484;SDS011;18083;50.560;7.262;2022-09-09T04:00:41;4.83;;;1.75;;
26484;SDS011;18083;50.560;7.262;2022-09-09T04:03:10;3.55;;;1.70;;
26484;SDS011;18083;50.560;7.262;2022-09-09T04:05:41;11.35;;;1.98;;
26484;SDS011;18083;50.560;7.262;2022-09-09T04:08:08;6.17;;;2.52;;
26484;SDS011;18083;50.560;7.262;2022-09-09T04:10:36;7.55;;;2.02;;
26484;SDS011;18083;50.560;7.262;2022-09-09T04:13:04;6.97;;;2.15;;
26484;SDS011;18083;50.560;7.262;2022-09-09T04:15:31;3.40;;;1.70;;
26484;SDS011;18083;50.560;7.262;2022-09-09T04:17:59;2.17;;;1.65;;
26484;SDS011;18083;50.560;7.262;2022-09-09T04:20:26;3.87;;;1.75;;
26484;SDS011;18083;50.560;7.262;2022-09-09T04:22:54;3.72;;;2.20;;
26484;SDS011;18083;50.560;7.262;2022-09-09T04:25:21;8.35;;;2.00;;
26484;SDS011;18083;50.560;7.262;2022-09-09T04:27:53;6.08;;;1.90;;
26484;SDS011;18083;50.560;7.262;2022-09-09T04:30:18;5.75;;;1.75;;
26484;SDS011;18083;50.560;7.262;2022-09-09T04:32:45;3.40;;;1.82;;
26484;SDS011;18083;50.560;7.262;2022-09-09T04:35:12;5.50;;;2.17;;
26484;SDS011;18083;50.560;7.262;2022-09-09T04:37:40;4.40;;;1.77;;
26484;SDS011;18083;50.560;7.262;2022-09-09T04:40:08;2.15;;;1.70;;
26484;SDS011;18083;50.560;7.262;2022-09-09T04:42:38;2.22;;;1.52;;
26484;SDS011;18083;50.560;7.262;2022-09-09T04:45:07;9.53;;;2.65;;
26484;SDS011;18083;50.560;7.262;2022-09-09T04:47:37;3.62;;;2.05;;
26484;SDS011;18083;50.560;7.262;2022-09-09T04:50:04;5.20;;;1.80;;
26484;SDS011;18083;50.560;7.262;2022-09-09T04:52:33;2.55;;;1.67;;
26484;SDS011;18083;50.560;7.262;2022-09-09T04:55:01;7.60;;;1.47;;
26484;SDS011;18083;50.560;7.262;2022-09-09T04:57:28;2.20;;;1.87;;
26484;SDS011;18083;50.560;7.262;2022-09-09T04:59:57;6.08;;;2.05;;
26484;SDS011;18083;50.560;7.262;2022-09-09T05:02:26;4.35;;;1.80;;
26484;SDS011;18083;50.560;7.262;2022-09-09T05:04:53;6.53;;;2.33;;
26484;SDS011;18083;50.560;7.262;2022-09-09T05:07:21;6.67;;;1.67;;
26484;SDS011;18083;50.560;7.262;2022-09-09T05:09:49;8.68;;;2.42;;
26484;SDS011;18083;50.560;7.262;2022-09-09T05:12:16;3.75;;;1.92;;
26484;SDS011;18083;50.560;7.262;2022-09-09T05:14:44;2.90;;;2.10;;
26484;SDS011;18083;50.560;7.262;2022-09-09T05:17:11;3.10;;;2.00;;
26484;SDS011;18083;50.560;7.262;2022-09-09T05:19:39;5.40;;;2.12;;
26484;SDS011;18083;50.560;7.262;2022-09-09T05:22:06;2.08;;;1.60;;
26484;SDS011;18083;50.560;7.262;2022-09-09T05:24:34;4.22;;;1.77;;
26484;SDS011;18083;50.560;7.262;2022-09-09T05:27:01;5.28;;;1.92;;
26484;SDS011;18083;50.560;7.262;2022-09-09T05:29:28;4.25;;;2.00;;
26484;SDS011;18083;50.560;7.262;2022-09-09T05:31:56;1.57;;;1.47;;
26484;SDS011;18083;50.560;7.262;2022-09-09T05:34:23;6.97;;;1.77;;
26484;SDS011;18083;50.560;7.262;2022-09-09T05:36:50;4.95;;;2.35;;
26484;SDS011;18083;50.560;7.262;2022-09-09T05:39:18;4.17;;;1.47;;
26484;SDS011;18083;50.560;7.262;2022-09-09T05:41:46;3.33;;;1.52;;
26484;SDS011;18083;50.560;7.262;2022-09-09T05:44:15;4.87;;;1.98;;
26484;SDS011;18083;50.560;7.262;2022-09-09T05:46:42;6.58;;;2.12;;
26484;SDS011;18083;50.560;7.262;2022-09-09T05:49:10;5.53;;;2.00;;
26484;SDS011;18083;50.560;7.262;2022-09-09T05:51:38;3.25;;;1.40;;
26484;SDS011;18083;50.560;7.262;2022-09-09T05:54:06;3.30;;;1.65;;
26484;SDS011;18083;50.560;7.262;2022-09-09T05:56:34;5.10;;;2.75;;
26484;SDS011;18083;50.560;7.262;2022-09-09T05:59:01;3.87;;;1.47;;
26484;SDS011;18083;50.560;7.262;2022-09-09T06:01:30;6.28;;;1.92;;
26484;SDS011;18083;50.560;7.262;2022-09-09T06:03:57;11.80;;;1.98;;
26484;SDS011;18083;50.560;7.262;2022-09-09T06:06:26;1.98;;;1.30;;
26484;SDS011;18083;50.560;7.262;2022-09-09T06:08:54;4.12;;;1.60;;
26484;SDS011;18083;50.560;7.262;2022-09-09T06:11:25;2.05;;;1.60;;
26484;SDS011;18083;50.560;7.262;2022-09-09T06:13:52;2.85;;;1.42;;
26484;SDS011;18083;50.560;7.262;2022-09-09T06:16:21;2.08;;;1.52;;
26484;SDS011;18083;50.560;7.262;2022-09-09T06:18:52;3.42;;;1.62;;
26484;SDS011;18083;50.560;7.262;2022-09-09T06:21:23;3.37;;;1.40;;
26484;SDS011;18083;50.560;7.262;2022-09-09T06:23:49;3.47;;;1.60;;
26484;SDS011;18083;50.560;7.262;2022-09-09T06:28:48;3.77;;;1.55;;
26484;SDS011;18083;50.560;7.262;2022-09-09T06:31:16;1.67;;;1.30;;
26484;SDS011;18083;50.560;7.262;2022-09-09T06:33:46;7.87;;;1.87;;
26484;SDS011;18083;50.560;7.262;2022-09-09T06:36:14;7.92;;;1.47;;
26484;SDS011;18083;50.560;7.262;2022-09-09T06:38:42;8.00;;;1.45;;
26484;SDS011;18083;50.560;7.262;2022-09-09T06:41:09;3.60;;;1.22;;
26484;SDS011;18083;50.560;7.262;2022-09-09T06:43:37;4.92;;;1.60;;
26484;SDS011;18083;50.560;7.262;2022-09-09T06:46:06;5.97;;;1.52;;
26484;SDS011;18083;50.560;7.262;2022-09-09T06:48:34;4.65;;;1.57;;
26484;SDS011;18083;50.560;7.262;2022-09-09T06:51:07;4.35;;;1.15;;
26484;SDS011;18083;50.560;7.262;2022-09-09T06:53:31;7.45;;;1.20;;
26484;SDS011;18083;50.560;7.262;2022-09-09T06:56:02;5.05;;;1.85;;
26484;SDS011;18083;50.560;7.262;2022-09-09T06:58:29;5.50;;;2.05;;
26484;SDS011;18083;50.560;7.262;2022-09-09T07:01:03;5.67;;;1.92;;
26484;SDS011;18083;50.560;7.262;2022-09-09T07:03:31;4.47;;;1.30;;
26484;SDS011;18083;50.560;7.262;2022-09-09T07:05:58;3.50;;;1.40;;
26484;SDS011;18083;50.560;7.262;2022-09-09T07:08:26;5.45;;;1.60;;
26484;SDS011;18083;50.560;7.262;2022-09-09T07:10:54;2.70;;;1.40;;
26484;SDS011;18083;50.560;7.262;2022-09-09T07:13:24;8.60;;;1.40;;
26484;SDS011;18083;50.560;7.262;2022-09-09T07:15:52;3.72;;;1.35;;
26484;SDS011;18083;50.560;7.262;2022-09-09T07:18:19;7.55;;;1.95;;
26484;SDS011;18083;50.560;7.262;2022-09-09T07:20:53;4.67;;;1.82;;
26484;SDS011;18083;50.560;7.262;2022-09-09T07:23:21;6.45;;;1.62;;
26484;SDS011;18083;50.560;7.262;2022-09-09T07:25:48;4.00;;;1.52;;
26484;SDS011;18083;50.560;7.262;2022-09-09T07:28:16;5.03;;;1.67;;
26484;SDS011;18083;50.560;7.262;2022-09-09T07:30:45;8.35;;;1.70;;
26484;SDS011;18083;50.560;7.262;2022-09-09T07:33:12;6.08;;;1.72;;
26484;SDS011;18083;50.560;7.262;2022-09-09T07:35:40;7.15;;;1.60;;
26484;SDS011;18083;50.560;7.262;2022-09-09T07:38:08;4.92;;;1.77;;
26484;SDS011;18083;50.560;7.262;2022-09-09T07:40:35;5.70;;;1.45;;
26484;SDS011;18083;50.560;7.262;2022-09-09T07:43:03;5.55;;;1.10;;
26484;SDS011;18083;50.560;7.262;2022-09-09T07:45:30;3.25;;;2.12;;
26484;SDS011;18083;50.560;7.262;2022-09-09T07:47:58;5.90;;;1.92;;
26484;SDS011;18083;50.560;7.262;2022-09-09T07:50:26;4.58;;;1.50;;
26484;SDS011;18083;50.560;7.262;2022-09-09T07:52:53;3.70;;;1.60;;
26484;SDS011;18083;50.560;7.262;2022-09-09T07:55:21;9.90;;;2.22;;
26484;SDS011;18083;50.560;7.262;2022-09-09T07:57:50;7.40;;;1.25;;
26484;SDS011;18083;50.560;7.262;2022-09-09T08:00:17;6.22;;;1.25;;
26484;SDS011;18083;50.560;7.262;2022-09-09T08:02:45;6.58;;;1.80;;
26484;SDS011;18083;50.560;7.262;2022-09-09T08:05:13;4.12;;;1.27;;
26484;SDS011;18083;50.560;7.262;2022-09-09T08:07:41;4.83;;;1.52;;
26484;SDS011;18083;50.560;7.262;2022-09-09T08:10:08;4.12;;;1.82;;
26484;SDS011;18083;50.560;7.262;2022-09-09T08:12:36;6.20;;;2.02;;
26484;SDS011;18083;50.560;7.262;2022-09-09T08:15:03;8.73;;;2.17;;
26484;SDS011;18083;50.560;7.262;2022-09-09T08:17:32;5.15;;;1.50;;
26484;SDS011;18083;50.560;7.262;2022-09-09T08:19:59;4.05;;;1.75;;
26484;SDS011;18083;50.560;7.262;2022-09-09T08:22:28;6.95;;;1.45;;
26484;SDS011;18083;50.560;7.262;2022-09-09T08:24:55;4.92;;;1.40;;
26484;SDS011;18083;50.560;7.262;2022-09-09T08:27:23;2.65;;;1.32;;
26484;SDS011;18083;50.560;7.262;2022-09-09T08:29:51;4.03;;;1.45;;
26484;SDS011;18083;50.560;7.262;2022-09-09T08:32:19;2.92;;;1.10;;
26484;SDS011;18083;50.560;7.262;2022-09-09T08:34:46;5.50;;;1.67;;
26484;SDS011;18083;50.560;7.262;2022-09-09T08:37:14;4.45;;;1.47;;
26484;SDS011;18083;50.560;7.262;2022-09-09T08:39:41;6.47;;;1.40;;
26484;SDS011;18083;50.560;7.262;2022-09-09T08:44:52;6.78;;;1.27;;
26484;SDS011;18083;50.560;7.262;2022-09-09T08:57:42;6.33;;;1.00;;
26484;SDS011;18083;50.560;7.262;2022-09-09T09:00:11;2.30;;;1.52;;
26484;SDS011;18083;50.560;7.262;2022-09-09T09:02:42;4.67;;;1.30;;
26484;SDS011;18083;50.560;7.262;2022-09-09T09:07:56;3.35;;;1.07;;
26484;SDS011;18083;50.560;7.262;2022-09-09T09:13:15;5.95;;;1.32;;
26484;SDS011;18083;50.560;7.262;2022-09-09T09:15:44;4.47;;;1.62;;
26484;SDS011;18083;50.560;7.262;2022-09-09T09:18:13;2.52;;;1.65;;
26484;SDS011;18083;50.560;7.262;2022-09-09T09:23:16;6.72;;;1.35;;
26484;SDS011;18083;50.560;7.262;2022-09-09T09:25:42;4.25;;;1.35;;
26484;SDS011;18083;50.560;7.262;2022-09-09T09:28:17;3.33;;;1.77;;
26484;SDS011;18083;50.560;7.262;2022-09-09T09:30:49;4.17;;;1.25;;
26484;SDS011;18083;50.560;7.262;2022-09-09T09:33:23;2.87;;;1.70;;
26484;SDS011;18083;50.560;7.262;2022-09-09T09:35:50;6.08;;;1.20;;
26484;SDS011;18083;50.560;7.262;2022-09-09T09:38:18;3.77;;;1.10;;
26484;SDS011;18083;50.560;7.262;2022-09-09T09:40:54;4.12;;;1.30;;
26484;SDS011;18083;50.560;7.262;2022-09-09T09:43:21;4.28;;;1.65;;
26484;SDS011;18083;50.560;7.262;2022-09-09T09:45:49;4.20;;;1.45;;
26484;SDS011;18083;50.560;7.262;2022-09-09T09:48:16;3.27;;;1.25;;
26484;SDS011;18083;50.560;7.262;2022-09-09T09:53:31;3.25;;;1.42;;
26484;SDS011;18083;50.560;7.262;2022-09-09T09:56:00;5.65;;;1.42;;
26484;SDS011;18083;50.560;7.262;2022-09-09T09:58:33;6.45;;;1.02;;
26484;SDS011;18083;50.560;7.262;2022-09-09T10:00:58;5.65;;;1.72;;
26484;SDS011;18083;50.560;7.262;2022-09-09T10:03:29;3.83;;;1.52;;
26484;SDS011;18083;50.560;7.262;2022-09-09T10:05:57;2.87;;;1.20;;
26484;SDS011;18083;50.560;7.262;2022-09-09T10:08:25;7.33;;;1.87;;
26484;SDS011;18083;50.560;7.262;2022-09-09T10:10:57;5.25;;;1.22;;
26484;SDS011;18083;50.560;7.262;2022-09-09T10:15:59;6.08;;;1.05;;
26484;SDS011;18083;50.560;7.262;2022-09-09T10:18:33;2.47;;;1.20;;
26484;SDS011;18083;50.560;7.262;2022-09-09T10:31:33;6.70;;;1.17;;
26484;SDS011;18083;50.560;7.262;2022-09-09T10:36:33;5.60;;;1.10;;
26484;SDS011;18083;50.560;7.262;2022-09-09T10:39:05;4.78;;;1.15;;
26484;SDS011;18083;50.560;7.262;2022-09-09T10:41:54;4.00;;;1.72;;
26484;SDS011;18083;50.560;7.262;2022-09-09T10:44:18;3.33;;;1.47;;
26484;SDS011;18083;50.560;7.262;2022-09-09T10:49:30;3.37;;;1.55;;
26484;SDS011;18083;50.560;7.262;2022-09-09T10:52:09;1.60;;;0.95;;
26484;SDS011;18083;50.560;7.262;2022-09-09T10:57:23;2.75;;;1.15;;
26484;SDS011;18083;50.560;7.262;2022-09-09T10:59:47;2.12;;;0.88;;
26484;SDS011;18083;50.560;7.262;2022-09-09T11:02:16;2.42;;;1.07;;
26484;SDS011;18083;50.560;7.262;2022-09-09T11:04:50;2.85;;;1.15;;
26484;SDS011;18083;50.560;7.262;2022-09-09T11:07:16;4.25;;;1.30;;
26484;SDS011;18083;50.560;7.262;2022-09-09T11:09:45;6.22;;;1.42;;
26484;SDS011;18083;50.560;7.262;2022-09-09T11:12:13;3.70;;;1.70;;
26484;SDS011;18083;50.560;7.262;2022-09-09T11:14:49;2.62;;;1.22;;
26484;SDS011;18083;50.560;7.262;2022-09-09T11:17:16;3.37;;;1.35;;
26484;SDS011;18083;50.560;7.262;2022-09-09T11:19:42;2.90;;;1.35;;
26484;SDS011;18083;50.560;7.262;2022-09-09T11:24:43;2.67;;;1.55;;
26484;SDS011;18083;50.560;7.262;2022-09-09T11:27:19;2.50;;;0.95;;
26484;SDS011;18083;50.560;7.262;2022-09-09T11:30:02;3.40;;;1.10;;
26484;SDS011;18083;50.560;7.262;2022-09-09T11:32:32;2.95;;;1.07;;
26484;SDS011;18083;50.560;7.262;2022-09-09T11:40:24;1.12;;;0.70;;
26484;SDS011;18083;50.560;7.262;2022-09-09T11:43:01;6.72;;;1.30;;
26484;SDS011;18083;50.560;7.262;2022-09-09T11:45:26;9.63;;;1.10;;
26484;SDS011;18083;50.560;7.262;2022-09-09T11:47:59;2.65;;;1.37;;
26484;SDS011;18083;50.560;7.262;2022-09-09T11:50:34;3.05;;;0.93;;
26484;SDS011;18083;50.560;7.262;2022-09-09T11:55:34;3.52;;;0.95;;
26484;SDS011;18083;50.560;7.262;2022-09-09T12:00:40;3.98;;;1.72;;
26484;SDS011;18083;50.560;7.262;2022-09-09T12:03:58;3.77;;;1.02;;
26484;SDS011;18083;50.560;7.262;2022-09-09T12:05:39;2.08;;;0.90;;
26484;SDS011;18083;50.560;7.262;2022-09-09T12:08:07;2.47;;;0.90;;
26484;SDS011;18083;50.560;7.262;2022-09-09T12:10:36;3.72;;;1.40;;
26484;SDS011;18083;50.560;7.262;2022-09-09T12:13:08;3.20;;;0.93;;
26484;SDS011;18083;50.560;7.262;2022-09-09T12:15:35;1.30;;;0.90;;
26484;SDS011;18083;50.560;7.262;2022-09-09T12:18:05;2.70;;;1.07;;
26484;SDS011;18083;50.560;7.262;2022-09-09T12:20:37;3.15;;;0.60;;
26484;SDS011;18083;50.560;7.262;2022-09-09T12:23:08;2.20;;;0.90;;
26484;SDS011;18083;50.560;7.262;2022-09-09T12:28:24;4.28;;;1.42;;
26484;SDS011;18083;50.560;7.262;2022-09-09T12:33:17;1.87;;;0.93;;
26484;SDS011;18083;50.560;7.262;2022-09-09T12:35:46;1.75;;;0.80;;
26484;SDS011;18083;50.560;7.262;2022-09-09T12:38:15;3.10;;;0.72;;
26484;SDS011;18083;50.560;7.262;2022-09-09T12:40:42;4.58;;;1.50;;
26484;SDS011;18083;50.560;7.262;2022-09-09T12:43:19;4.72;;;1.17;;
26484;SDS011;18083;50.560;7.262;2022-09-09T12:45:47;0.75;;;0.75;;
26484;SDS011;18083;50.560;7.262;2022-09-09T12:48:19;2.30;;;0.68;;
26484;SDS011;18083;50.560;7.262;2022-09-09T12:50:52;3.80;;;1.10;;
26484;SDS011;18083;50.560;7.262;2022-09-09T12:53:29;2.92;;;0.57;;
26484;SDS011;18083;50.560;7.262;2022-09-09T12:55:56;4.25;;;1.05;;
26484;SDS011;18083;50.560;7.262;2022-09-09T12:58:21;2.02;;;0.90;;
26484;SDS011;18083;50.560;7.262;2022-09-09T13:00:50;2.45;;;1.22;;
26484;SDS011;18083;50.560;7.262;2022-09-09T13:03:19;2.55;;;0.70;;
26484;SDS011;18083;50.560;7.262;2022-09-09T13:05:49;2.33;;;1.45;;
26484;SDS011;18083;50.560;7.262;2022-09-09T13:11:10;2.55;;;0.95;;
26484;SDS011;18083;50.560;7.262;2022-09-09T13:13:40;5.90;;;1.10;;
26484;SDS011;18083;50.560;7.262;2022-09-09T13:16:21;4.92;;;1.15;;
26484;SDS011;18083;50.560;7.262;2022-09-09T13:18:51;6.60;;;1.05;;
26484;SDS011;18083;50.560;7.262;2022-09-09T13:21:18;4.92;;;1.30;;
26484;SDS011;18083;50.560;7.262;2022-09-09T13:23:49;1.32;;;0.72;;
26484;SDS011;18083;50.560;7.262;2022-09-09T13:26:27;3.35;;;1.15;;
26484;SDS011;18083;50.560;7.262;2022-09-09T13:28:48;2.67;;;1.22;;
26484;SDS011;18083;50.560;7.262;2022-09-09T13:31:20;4.92;;;0.82;;
26484;SDS011;18083;50.560;7.262;2022-09-09T13:33:48;3.40;;;1.17;;
26484;SDS011;18083;50.560;7.262;2022-09-09T13:36:16;2.02;;;0.80;;
26484;SDS011;18083;50.560;7.262;2022-09-09T13:41:18;4.25;;;1.00;;
26484;SDS011;18083;50.560;7.262;2022-09-09T13:43:44;5.25;;;0.75;;
26484;SDS011;18083;50.560;7.262;2022-09-09T13:46:28;5.22;;;0.80;;
26484;SDS011;18083;50.560;7.262;2022-09-09T13:48:57;4.00;;;1.10;;
26484;SDS011;18083;50.560;7.262;2022-09-09T13:51:29;5.60;;;1.02;;
26484;SDS011;18083;50.560;7.262;2022-09-09T13:53:53;2.55;;;1.00;;
26484;SDS011;18083;50.560;7.262;2022-09-09T13:56:21;3.70;;;1.20;;
26484;SDS011;18083;50.560;7.262;2022-09-09T13:58:48;2.45;;;1.25;;
26484;SDS011;18083;50.560;7.262;2022-09-09T14:01:15;2.37;;;1.12;;
26484;SDS011;18083;50.560;7.262;2022-09-09T14:03:43;3.95;;;1.25;;
26484;SDS011;18083;50.560;7.262;2022-09-09T14:06:10;1.77;;;0.85;;
26484;SDS011;18083;50.560;7.262;2022-09-09T14:08:38;2.47;;;0.82;;
26484;SDS011;18083;50.560;7.262;2022-09-09T14:11:07;4.47;;;1.10;;
26484;SDS011;18083;50.560;7.262;2022-09-09T14:13:36;0.80;;;0.65;;
26484;SDS011;18083;50.560;7.262;2022-09-09T14:16:03;2.42;;;0.75;;
26484;SDS011;18083;50.560;7.262;2022-09-09T14:18:31;2.47;;;0.90;;
26484;SDS011;18083;50.560;7.262;2022-09-09T14:20:58;2.17;;;0.90;;
26484;SDS011;18083;50.560;7.262;2022-09-09T14:23:25;3.67;;;0.88;;
26484;SDS011;18083;50.560;7.262;2022-09-09T14:25:53;2.33;;;1.02;;
26484;SDS011;18083;50.560;7.262;2022-09-09T14:28:20;1.52;;;0.80;;
26484;SDS011;18083;50.560;7.262;2022-09-09T14:30:47;0.95;;;0.82;;
26484;SDS011;18083;50.560;7.262;2022-09-09T14:33:15;2.10;;;0.75;;
26484;SDS011;18083;50.560;7.262;2022-09-09T14:35:43;1.50;;;0.65;;
26484;SDS011;18083;50.560;7.262;2022-09-09T14:38:10;0.50;;;0.50;;
26484;SDS011;18083;50.560;7.262;2022-09-09T14:40:38;1.92;;;0.57;;
26484;SDS011;18083;50.560;7.262;2022-09-09T14:43:05;0.60;;;0.60;;
26484;SDS011;18083;50.560;7.262;2022-09-09T14:45:35;0.65;;;0.40;;
26484;SDS011;18083;50.560;7.262;2022-09-09T14:48:04;4.12;;;0.95;;
26484;SDS011;18083;50.560;7.262;2022-09-09T14:50:31;1.92;;;0.78;;
26484;SDS011;18083;50.560;7.262;2022-09-09T14:53:00;1.12;;;0.65;;
26484;SDS011;18083;50.560;7.262;2022-09-09T14:55:29;1.55;;;0.82;;
26484;SDS011;18083;50.560;7.262;2022-09-09T14:57:56;2.08;;;0.72;;
26484;SDS011;18083;50.560;7.262;2022-09-09T15:00:24;1.02;;;0.72;;
26484;SDS011;18083;50.560;7.262;2022-09-09T15:02:52;0.40;;;0.40;;
26484;SDS011;18083;50.560;7.262;2022-09-09T15:05:20;1.15;;;0.55;;
26484;SDS011;18083;50.560;7.262;2022-09-09T15:07:47;1.92;;;0.70;;
26484;SDS011;18083;50.560;7.262;2022-09-09T15:10:15;2.12;;;0.82;;
26484;SDS011;18083;50.560;7.262;2022-09-09T15:12:43;4.20;;;0.80;;
26484;SDS011;18083;50.560;7.262;2022-09-09T15:15:11;1.17;;;0.62;;
26484;SDS011;18083;50.560;7.262;2022-09-09T15:17:38;1.27;;;0.60;;
26484;SDS011;18083;50.560;7.262;2022-09-09T15:20:07;1.40;;;0.65;;
26484;SDS011;18083;50.560;7.262;2022-09-09T15:22:34;0.50;;;0.50;;
26484;SDS011;18083;50.560;7.262;2022-09-09T15:25:03;2.55;;;0.60;;
26484;SDS011;18083;50.560;7.262;2022-09-09T15:27:32;1.60;;;0.57;;
26484;SDS011;18083;50.560;7.262;2022-09-09T15:30:00;1.27;;;0.93;;
26484;SDS011;18083;50.560;7.262;2022-09-09T15:32:27;0.93;;;0.72;;
26484;SDS011;18083;50.560;7.262;2022-09-09T15:34:55;1.92;;;0.78;;
26484;SDS011;18083;50.560;7.262;2022-09-09T15:37:22;1.32;;;0.72;;
26484;SDS011;18083;50.560;7.262;2022-09-09T15:39:50;1.57;;;0.80;;
26484;SDS011;18083;50.560;7.262;2022-09-09T15:42:17;1.17;;;0.72;;
26484;SDS011;18083;50.560;7.262;2022-09-09T15:44:45;1.98;;;0.57;;
26484;SDS011;18083;50.560;7.262;2022-09-09T15:47:12;1.27;;;0.88;;
26484;SDS011;18083;50.560;7.262;2022-09-09T15:49:39;1.65;;;0.70;;
26484;SDS011;18083;50.560;7.262;2022-09-09T15:52:08;1.75;;;0.62;;
26484;SDS011;18083;50.560;7.262;2022-09-09T15:54:36;1.37;;;1.00;;
26484;SDS011;18083;50.560;7.262;2022-09-09T15:57:05;1.20;;;0.80;;
26484;SDS011;18083;50.560;7.262;2022-09-09T15:59:33;2.58;;;0.75;;
26484;SDS011;18083;50.560;7.262;2022-09-09T16:02:00;2.62;;;0.85;;
26484;SDS011;18083;50.560;7.262;2022-09-09T16:04:28;1.25;;;0.65;;
26484;SDS011;18083;50.560;7.262;2022-09-09T16:07:00;0.60;;;0.60;;
26484;SDS011;18083;50.560;7.262;2022-09-09T16:09:27;2.47;;;1.12;;
26484;SDS011;18083;50.560;7.262;2022-09-09T16:11:58;1.70;;;1.10;;
26484;SDS011;18083;50.560;7.262;2022-09-09T16:14:27;1.00;;;0.93;;
26484;SDS011;18083;50.560;7.262;2022-09-09T16:16:54;3.58;;;1.17;;
26484;SDS011;18083;50.560;7.262;2022-09-09T16:19:22;2.47;;;1.32;;
26484;SDS011;18083;50.560;7.262;2022-09-09T16:21:49;4.80;;;1.57;;
26484;SDS011;18083;50.560;7.262;2022-09-09T16:24:17;3.22;;;1.32;;
26484;SDS011;18083;50.560;7.262;2022-09-09T16:26:51;1.17;;;1.07;;
26484;SDS011;18083;50.560;7.262;2022-09-09T16:29:15;5.58;;;1.40;;
26484;SDS011;18083;50.560;7.262;2022-09-09T16:31:43;3.45;;;1.50;;
26484;SDS011;18083;50.560;7.262;2022-09-09T16:34:11;2.58;;;1.12;;
26484;SDS011;18083;50.560;7.262;2022-09-09T16:36:39;6.62;;;1.32;;
26484;SDS011;18083;50.560;7.262;2022-09-09T16:39:10;5.50;;;1.10;;
26484;SDS011;18083;50.560;7.262;2022-09-09T16:41:36;2.02;;;1.10;;
26484;SDS011;18083;50.560;7.262;2022-09-09T16:44:05;3.60;;;1.12;;
26484;SDS011;18083;50.560;7.262;2022-09-09T16:46:36;2.90;;;1.35;;
26484;SDS011;18083;50.560;7.262;2022-09-09T16:49:05;3.52;;;1.62;;
26484;SDS011;18083;50.560;7.262;2022-09-09T16:51:42;2.00;;;1.72;;
26484;SDS011;18083;50.560;7.262;2022-09-09T16:54:05;4.17;;;1.27;;